Data for 11/06/2009

Time Sea-Level Adjusted Pressure Absolute Pressure Temperature Relative Humidity Dew Point   
(mb) (inHg) (mb) (inHg) (C) (F) (%) (C) (F)
00:05 1010 29.83 839 24.78 14.3 57.7 23 -6.7 19.9
00:10 1009 29.8 839 24.78 14.1 57.3 22 -7.6 18.4
00:15 1009 29.8 838 24.75 14.5 58.1 22 -7 19.5
00:20 1009 29.8 838 24.75 14.4 57.8 21 -7.4 18.6
00:25 1009 29.8 838 24.75 14.6 58.3 21 -7.6 18.3
00:30 1009 29.8 838 24.75 14.6 58.2 22 -7 19.3
00:35 1009 29.8 838 24.75 14.4 57.9 22 -7.2 19.1
00:40 1009 29.8 838 24.75 14 57.2 23 -6.7 20
00:45 1009 29.8 838 24.75 13.8 56.9 22 -7.3 18.8
00:50 1009 29.8 838 24.75 13.9 57 23 -6.9 19.5
00:55 1009 29.8 838 24.75 14 57.2 23 -6.8 19.7
01:00 1009 29.8 838 24.75 14 57.1 21 -8 17.5
01:05 1009 29.8 838 24.75 14.4 57.9 22 -7.2 19
01:10 1009 29.8 838 24.75 14.2 57.6 21 -7.6 18.3
01:15 1009 29.8 838 24.75 14.1 57.3 22 -7.4 18.6
01:20 1009 29.8 838 24.75 13.9 57 22 -7.5 18.5
01:25 1008 29.77 838 24.75 13.9 57 21 -8 17.7
01:30 1008 29.77 838 24.75 14 57.1 21 -8.1 17.3
01:35 1008 29.77 838 24.75 13.8 56.8 20 -8.7 16.4
01:40 1008 29.77 838 24.75 13.8 56.9 21 -8.4 16.9
01:45 1008 29.77 838 24.75 14 57.2 20 -8.5 16.8
01:50 1008 29.77 837 24.72 14.1 57.3 20 -8.6 16.6
01:55 1008 29.77 837 24.72 14 57.1 20 -8.4 16.8
02:00 1008 29.77 837 24.72 13.6 56.5 19 -9.4 15.1
02:05 1008 29.77 837 24.72 13.9 57.1 22 -7.4 18.7
02:10 1008 29.77 837 24.72 13.1 55.6 21 -8.6 16.4
02:15 1008 29.77 837 24.72 12.9 55.3 21 -8.9 16.1
02:20 1008 29.77 837 24.72 13.1 55.6 20 -9.3 15.2
02:25 1008 29.77 837 24.72 13.1 55.5 21 -8.9 15.9
02:30 1008 29.77 837 24.72 12.9 55.2 22 -8.5 16.7
02:35 1008 29.77 837 24.72 12.8 55.1 22 -8.6 16.5
02:40 1008 29.77 837 24.72 12.9 55.3 22 -8 17.6
02:45 1008 29.77 837 24.72 12.8 55 23 -7.9 17.9
02:50 1008 29.77 837 24.72 13.1 55.5 22 -8 17.5
02:55 1008 29.77 837 24.72 13.3 56 23 -7.5 18.5
03:00 1008 29.77 837 24.72 13.2 55.8 23 -7.6 18.3
03:05 1008 29.77 837 24.72 13.2 55.7 23 -7.5 18.5
03:10 1008 29.77 837 24.72 13.3 56 22 -8 17.7
03:15 1007 29.74 837 24.72 13.6 56.5 22 -7.5 18.5
03:20 1007 29.74 837 24.72 13.4 56 22 -8 17.6
03:25 1007 29.74 837 24.72 13.4 56.1 22 -7.9 17.8
03:30 1007 29.74 836 24.69 13.1 55.7 23 -7.6 18.3
03:35 1007 29.74 836 24.69 12.7 54.9 24 -7.1 19.2
03:40 1007 29.74 836 24.69 12.3 54.1 24 -7.8 18
03:45 1007 29.74 836 24.69 12.5 54.4 24 -7.6 18.3
03:50 1007 29.74 836 24.69 12.7 54.8 24 -7.4 18.6
03:55 1007 29.74 836 24.69 12.6 54.7 24 -7.5 18.5
04:00 1007 29.74 836 24.69 12.7 54.8 23 -7.6 18.2
04:05 1007 29.74 836 24.69 12.7 54.9 23 -7.9 17.7
04:10 1007 29.74 836 24.69 12.9 55.2 23 -7.9 17.7
04:15 1007 29.74 836 24.69 12.8 55.1 22 -8.1 17.4
04:20 1007 29.74 836 24.69 12.8 55 23 -7.8 18
04:25 1007 29.74 836 24.69 12.7 54.8 23 -8.1 17.5
04:30 1007 29.74 836 24.69 13 55.4 21 -8.6 16.6
04:35 1007 29.74 836 24.69 13.1 55.6 22 -8.2 17.2
04:40 1007 29.74 836 24.69 12.9 55.3 21 -8.7 16.3
04:45 1007 29.74 836 24.69 13.1 55.5 21 -8.6 16.5
04:50 1007 29.74 836 24.69 13 55.3 23 -7.9 17.8
04:55 1007 29.74 836 24.69 12.9 55.2 21 -8.8 16.1
05:00 1007 29.74 836 24.69 12.7 54.9 21 -9.1 15.7
05:05 1007 29.74 836 24.69 12.9 55.2 22 -8.5 16.7
05:10 1007 29.74 836 24.69 12.9 55.2 21 -8.9 16
05:15 1007 29.74 836 24.69 12.9 55.3 22 -8.4 16.8
05:20 1007 29.74 836 24.69 12.7 54.9 22 -8.5 16.7
05:25 1007 29.74 836 24.69 12.5 54.5 22 -8.6 16.5
05:30 1007 29.74 836 24.69 12.7 54.9 22 -8.7 16.3
05:35 1007 29.74 836 24.69 13 55.5 20 -9.3 15.3
05:40 1007 29.74 836 24.69 14.1 57.4 18 -10.2 13.6
05:45 1007 29.74 836 24.69 14.5 58.1 18 -9.4 15
05:50 1007 29.74 836 24.69 14.1 57.4 19 -9.2 15.4
05:55 1007 29.74 836 24.69 13.8 56.9 19 -9.1 15.7
06:00 1007 29.74 836 24.69 13.7 56.6 19 -9.6 14.7
06:05 1007 29.74 836 24.69 14.1 57.4 18 -9.8 14.3
06:10 1007 29.74 836 24.69 14.2 57.6 19 -9.3 15.3
06:15 1007 29.74 836 24.69 13.9 57.1 19 -9.2 15.4
06:20 1007 29.74 836 24.69 13.8 56.8 19 -9.3 15.2
06:25 1007 29.74 836 24.69 13.9 57 19 -9.1 15.6
06:30 1007 29.74 836 24.69 13.8 56.8 19 -9.1 15.6
06:35 1007 29.74 836 24.69 13.7 56.7 20 -8.8 16.1
06:40 1007 29.74 836 24.69 13.5 56.4 20 -9 15.8
06:45 1007 29.74 836 24.69 13.5 56.3 20 -9.1 15.6
06:50 1007 29.74 836 24.69 13.5 56.3 20 -9.1 15.6
06:55 1007 29.74 836 24.69 13.5 56.3 19 -9.5 15
07:00 1007 29.74 836 24.69 13.6 56.5 19 -9.3 15.3
07:05 1007 29.74 836 24.69 13.4 56.2 20 -8.9 15.9
07:10 1007 29.74 836 24.69 13.1 55.6 21 -8.9 16
07:15 1007 29.74 836 24.69 13.1 55.5 21 -9 15.8
07:20 1007 29.74 836 24.69 13.1 55.6 20 -9.2 15.5
07:25 1007 29.74 836 24.69 13.1 55.6 21 -8.7 16.3
07:30 1007 29.74 836 24.69 13 55.3 21 -8.6 16.5
07:35 1007 29.74 836 24.69 12.7 54.9 22 -8.5 16.6
07:40 1007 29.74 836 24.69 12.5 54.5 22 -8.6 16.5
07:45 1007 29.74 836 24.69 12.4 54.3 23 -8.3 17
07:50 1007 29.74 836 24.69 12.2 54 22 -8.8 16.1
07:55 1007 29.74 836 24.69 12.4 54.3 22 -8.5 16.7
08:00 1007 29.74 836 24.69 12.4 54.3 22 -8.5 16.7
08:05 1007 29.74 836 24.69 12.6 54.6 21 -9.1 15.6
08:10 1007 29.74 836 24.69 13.1 55.5 21 -8.8 16.1
08:15 1007 29.74 836 24.69 13.4 56.1 21 -8.6 16.6
08:20 1007 29.74 837 24.72 13.3 55.9 22 -8.1 17.4
08:25 1007 29.74 837 24.72 13.2 55.8 21 -8.7 16.3
08:30 1007 29.74 837 24.72 13.3 55.9 22 -8.2 17.2
08:35 1007 29.74 837 24.72 13.4 56.2 20 -9.1 15.6
08:40 1007 29.74 836 24.69 13.7 56.6 20 -9.2 15.4
08:45 1007 29.74 836 24.69 13.7 56.6 20 -9.1 15.6
08:50 1007 29.74 836 24.69 13.7 56.6 20 -8.9 16
08:55 1007 29.74 836 24.69 13.7 56.6 19 -9.2 15.4
09:00 1007 29.74 836 24.69 13.8 56.9 20 -8.9 16
09:05 1007 29.74 837 24.72 13.8 56.9 21 -8.4 17
09:10 1007 29.74 836 24.69 13.7 56.7 21 -8.5 16.7
09:15 1007 29.74 837 24.72 13.7 56.6 21 -8.4 16.9
09:20 1007 29.74 837 24.72 13.8 56.9 20 -8.5 16.8
09:25 1008 29.77 837 24.72 14.2 57.6 20 -8.6 16.5
09:30 1008 29.77 837 24.72 14.2 57.6 20 -8.2 17.2
09:35 1007 29.74 837 24.72 14.3 57.7 21 -8 17.6
09:40 1007 29.74 837 24.72 14.1 57.4 21 -7.9 17.7
09:45 1007 29.74 837 24.72 14.1 57.4 21 -7.9 17.8
09:50 1007 29.74 836 24.69 14.2 57.6 21 -7.9 17.7
09:55 1007 29.74 836 24.69 14.4 57.8 20 -8.2 17.2
10:00 1007 29.74 837 24.72 14.3 57.7 21 -7.9 17.8
10:05 1007 29.74 837 24.72 14.4 57.9 21 -7.9 17.8
10:10 1007 29.74 837 24.72 14.4 57.9 21 -7.9 17.8
10:15 1007 29.74 837 24.72 14.4 57.8 21 -7.7 18.1
10:20 1007 29.74 837 24.72 14.3 57.8 21 -7.5 18.5
10:25 1007 29.74 837 24.72 14.4 57.8 21 -7.9 17.7
10:30 1008 29.77 837 24.72 14.4 57.9 22 -7 19.3
10:35 1008 29.77 837 24.72 14.5 58.1 23 -6.5 20.4
10:40 1008 29.77 837 24.72 14.6 58.2 23 -6.4 20.4
10:45 1008 29.77 837 24.72 14.5 58.1 23 -6.3 20.7
10:50 1008 29.77 837 24.72 14.6 58.2 23 -6.1 21.1
10:55 1008 29.77 837 24.72 14.5 58.2 23 -6.1 21
11:00 1008 29.77 837 24.72 14.7 58.5 24 -5.8 21.5
11:05 1008 29.77 837 24.72 14.6 58.3 24 -5.9 21.4
11:10 1008 29.77 837 24.72 14.8 58.7 23 -5.9 21.4
11:15 1008 29.77 837 24.72 14.9 58.9 23 -5.9 21.3
11:20 1008 29.77 837 24.72 15 59.1 23 -6 21.2
11:25 1008 29.77 837 24.72 15.3 59.6 22 -6 21.1
11:30 1008 29.77 837 24.72 15.7 60.3 22 -5.9 21.4
11:35 1008 29.77 837 24.72 15.6 60 22 -6.1 21.1
11:40 1008 29.77 837 24.72 15.6 60 22 -5.9 21.3
11:45 1008 29.77 837 24.72 15.8 60.5 21 -6.4 20.6
11:50 1008 29.77 837 24.72 15.3 59.6 23 -5.8 21.6
11:55 1008 29.77 837 24.72 14.7 58.4 22 -6.5 20.4
12:00 1008 29.77 837 24.72 14.5 58 23 -6.2 20.8
12:05 1008 29.77 837 24.72 14.3 57.8 23 -6.3 20.7
12:10 1008 29.77 837 24.72 14.1 57.5 24 -6.1 21
12:15 1008 29.77 837 24.72 14 57.2 23 -6.8 19.8
12:20 1009 29.8 838 24.75 13.5 56.3 38 -0.6 30.9
12:25 1010 29.83 839 24.78 10 50 51 0.3 32.6
12:30 1010 29.83 839 24.78 8.1 46.5 63 1.4 34.6
12:35 1010 29.83 839 24.78 7.1 44.8 69 1.7 35.1
12:40 1010 29.83 839 24.78 6.7 44.1 68 1.4 34.5
12:45 1010 29.83 839 24.78 6.6 43.9 69 1.4 34.4
12:50 1010 29.83 839 24.78 6.6 43.9 68 1.1 34
12:55 1010 29.83 839 24.78 6.7 44.1 68 1.2 34.2
13:00 1010 29.83 839 24.78 6.7 44.1 67 1.1 33.9
13:05 1010 29.83 839 24.78 6.8 44.2 68 1.3 34.3
13:10 1010 29.83 840 24.81 7 44.6 67 1.4 34.5
13:15 1010 29.83 840 24.81 7.2 45 65 1.2 34.2
13:20 1011 29.85 840 24.81 7.4 45.3 66 1.5 34.6
13:25 1011 29.85 840 24.81 7.7 45.8 63 1.2 34.1
13:30 1011 29.85 840 24.81 7.2 45 66 1.4 34.5
13:35 1011 29.85 840 24.81 6.9 44.5 69 1.7 35.1
13:40 1011 29.85 840 24.81 7 44.7 67 1.3 34.4
13:45 1011 29.85 840 24.81 7.2 45 66 1.4 34.5
13:50 1011 29.85 840 24.81 7.3 45.1 65 1.2 34.2
13:55 1011 29.85 840 24.81 7.2 45 64 0.8 33.5
14:00 1011 29.85 840 24.81 7.5 45.4 62 0.7 33.3
14:05 1011 29.85 840 24.81 7.7 45.8 63 1.1 33.9
14:10 1011 29.85 840 24.81 7.9 46.1 60 0.6 33.1
14:15 1011 29.85 840 24.81 7.9 46.3 63 1.3 34.4
14:20 1011 29.85 841 24.83 7.9 46.2 64 1.5 34.7
14:25 1012 29.88 841 24.83 7.8 46 64 1.5 34.7
14:30 1012 29.88 841 24.83 7.3 45.2 64 1.1 34
14:35 1012 29.88 841 24.83 6.8 44.2 71 1.9 35.5
14:40 1012 29.88 841 24.83 6.3 43.3 76 2.4 36.3
14:45 1012 29.88 841 24.83 6 42.7 79 2.6 36.7
14:50 1012 29.88 841 24.83 5.6 42.1 80 2.5 36.5
14:55 1011 29.85 841 24.83 5.7 42.2 82 2.9 37.2
15:00 1012 29.88 841 24.83 5.7 42.3 81 2.8 37
15:05 1012 29.88 841 24.83 5.7 42.2 82 2.8 37
15:10 1012 29.88 841 24.83 5.9 42.7 79 2.5 36.6
15:15 1012 29.88 841 24.83 6.4 43.6 78 2.9 37.2
15:20 1012 29.88 841 24.83 6.1 43 80 2.8 37.1
15:25 1011 29.85 841 24.83 5.8 42.5 78 2.3 36.2
15:30 1011 29.85 841 24.83 5.8 42.5 78 2.3 36.1
15:35 1011 29.85 841 24.83 6.2 43.1 77 2.4 36.3
15:40 1011 29.85 841 24.83 6.8 44.2 72 2.1 35.7
15:45 1011 29.85 840 24.81 7.6 45.7 66 1.7 35.1
15:50 1011 29.85 840 24.81 8.4 47.1 60 1.2 34.2
15:55 1011 29.85 840 24.81 8.5 47.2 61 1.5 34.7
16:00 1011 29.85 840 24.81 8.6 47.5 58 0.9 33.6
16:05 1011 29.85 840 24.81 8.7 47.7 60 1.3 34.4
16:10 1011 29.85 841 24.83 8.7 47.6 61 1.5 34.8
16:15 1011 29.85 841 24.83 8.6 47.5 61 1.5 34.6
16:20 1011 29.85 841 24.83 8.4 47.1 60 1.1 34
16:25 1011 29.85 841 24.83 8.4 47 58 0.7 33.2
16:30 1011 29.85 840 24.81 8.5 47.2 58 0.8 33.4
16:35 1011 29.85 841 24.83 8.6 47.5 59 1.1 34.1
16:40 1011 29.85 841 24.83 8.8 47.8 58 1.1 34
16:45 1011 29.85 841 24.83 8.7 47.6 58 1 33.7
16:50 1011 29.85 841 24.83 8.4 47.2 61 1.4 34.4
16:55 1012 29.88 841 24.83 8.2 46.7 60 0.9 33.6
17:00 1012 29.88 841 24.83 8 46.5 59 0.5 32.9
17:05 1012 29.88 841 24.83 7.8 46.1 57 -0.2 31.7
17:10 1012 29.88 841 24.83 7.8 46.1 56 -0.3 31.5
17:15 1012 29.88 841 24.83 7.9 46.2 53 -1.2 29.9
17:20 1012 29.88 841 24.83 7.8 46.1 50 -2 28.4
17:25 1012 29.88 841 24.83 7.6 45.7 48 -2.7 27.2
17:30 1012 29.88 841 24.83 7.4 45.4 46 -3.4 25.8
17:35 1012 29.88 841 24.83 7.4 45.2 42 -4.6 23.7
17:40 1012 29.88 841 24.83 7.3 45.2 42 -4.7 23.6
17:45 1012 29.88 841 24.83 7.2 45 41 -5.1 22.8
17:50 1012 29.88 841 24.83 7.1 44.8 43 -4.7 23.6
17:55 1012 29.88 841 24.83 7 44.6 43 -4.8 23.4
18:00 1012 29.88 841 24.83 6.8 44.3 43 -4.8 23.4
18:05 1012 29.88 841 24.83 6.7 44.1 44 -4.7 23.6
18:10 1012 29.88 841 24.83 6.6 43.9 44 -4.9 23.2
18:15 1012 29.88 842 24.86 6.5 43.7 44 -5 23
18:20 1012 29.88 842 24.86 6.4 43.6 43 -5.2 22.6
18:25 1012 29.88 842 24.86 6.3 43.3 44 -5 23.1
18:30 1012 29.88 842 24.86 6 42.8 46 -4.9 23.2
18:35 1012 29.88 842 24.86 5.6 42.1 47 -4.9 23.1
18:40 1012 29.88 842 24.86 5.4 41.7 46 -5.2 22.6
18:45 1012 29.88 842 24.86 5.4 41.7 45 -5.5 22
18:50 1013 29.91 842 24.86 5.3 41.6 46 -5.4 22.2
18:55 1013 29.91 842 24.86 5.3 41.5 45 -5.8 21.6
19:00 1013 29.91 842 24.86 5.2 41.4 44 -6.2 20.8
19:05 1013 29.91 842 24.86 5.3 41.5 44 -6.1 21.1
19:10 1013 29.91 842 24.86 5.3 41.6 44 -6.1 21
19:15 1013 29.91 842 24.86 5.4 41.7 43 -6.1 21
19:20 1013 29.91 842 24.86 5.4 41.6 44 -5.8 21.5
19:25 1013 29.91 842 24.86 5.3 41.6 43 -6.2 20.9
19:30 1013 29.91 842 24.86 5.3 41.6 44 -5.8 21.5
19:35 1013 29.91 842 24.86 5.2 41.3 51 -4.2 24.4
19:40 1013 29.91 842 24.86 4.2 39.6 53 -4.6 23.8
19:45 1013 29.91 842 24.86 4.1 39.3 50 -5.4 22.3
19:50 1013 29.91 842 24.86 4.2 39.5 49 -5.6 21.9
19:55 1013 29.91 842 24.86 4.4 40 48 -5.5 22.1
20:00 1013 29.91 842 24.86 4.7 40.4 47 -5.6 22
20:05 1013 29.91 842 24.86 4.5 40.1 51 -4.9 23.2
20:10 1013 29.91 842 24.86 3.8 38.9 54 -4.6 23.6
20:15 1013 29.91 842 24.86 3.7 38.6 53 -5.1 22.9
20:20 1013 29.91 842 24.86 3.8 38.8 52 -5.3 22.4
20:25 1013 29.91 842 24.86 3.9 39.1 50 -5.4 22.2
20:30 1013 29.91 843 24.89 4.1 39.3 50 -5.4 22.3
20:35 1013 29.91 843 24.89 3.5 38.3 52 -5.5 22.2
20:40 1013 29.91 843 24.89 3.6 38.5 49 -6.1 20.9
20:45 1013 29.91 843 24.89 4.1 39.4 47 -6.1 21
20:50 1013 29.91 843 24.89 3.6 38.5 51 -5.4 22.2
20:55 1013 29.91 843 24.89 3.5 38.4 49 -6.2 20.9
21:00 1013 29.91 843 24.89 3.9 39.1 49 -5.9 21.4
21:05 1013 29.91 843 24.89 4.1 39.3 48 -5.9 21.4
21:10 1013 29.91 843 24.89 4.2 39.6 47 -6 21.1
21:15 1013 29.91 843 24.89 4.3 39.7 48 -5.7 21.8
21:20 1013 29.91 843 24.89 4.1 39.5 48 -5.9 21.4
21:25 1013 29.91 843 24.89 4.1 39.4 49 -5.5 22.1
21:30 1014 29.94 843 24.89 4 39.2 49 -5.6 21.8
21:35 1014 29.94 843 24.89 3.4 38.1 54 -5.1 22.9
21:40 1014 29.94 843 24.89 2.8 37.1 53 -5.9 21.4
21:45 1013 29.91 843 24.89 3.2 37.8 51 -6 21.3
21:50 1013 29.91 843 24.89 3.6 38.4 52 -5.4 22.2
21:55 1013 29.91 843 24.89 3.4 38.2 54 -5.1 22.8
22:00 1013 29.91 843 24.89 2.9 37.2 58 -4.6 23.8
22:05 1013 29.91 843 24.89 1.7 35.1 63 -4.5 24
22:10 1013 29.91 843 24.89 1.5 34.7 65 -4.3 24.2
22:15 1014 29.94 843 24.89 1.2 34.2 71 -3.6 25.6
22:20 1014 29.94 843 24.89 1.2 34.2 70 -3.7 25.3
22:25 1014 29.94 843 24.89 1.3 34.4 68 -3.8 25.1
22:30 1014 29.94 843 24.89 1.6 34.9 69 -3.5 25.6
22:35 1014 29.94 843 24.89 1.4 34.5 69 -3.6 25.5
22:40 1014 29.94 843 24.89 1.3 34.4 69 -3.7 25.4
22:45 1014 29.94 843 24.89 1.3 34.3 70 -3.6 25.5
22:50 1014 29.94 843 24.89 1.2 34.2 71 -3.5 25.6
22:55 1014 29.94 843 24.89 1.1 34 71 -3.6 25.6
23:00 1013 29.91 843 24.89 1 33.7 71 -3.7 25.3
23:05 1013 29.91 843 24.89 0.4 32.7 74 -3.7 25.4
23:10 1013 29.91 843 24.89 0.3 32.5 75 -3.6 25.5
23:15 1013 29.91 843 24.89 0.1 32.2 75 -3.8 25.2
23:20 1013 29.91 843 24.89 0 32.1 74 -4.1 24.6
23:25 1013 29.91 842 24.86 0.1 32.1 73 -4.2 24.4
23:30 1013 29.91 842 24.86 -0.1 31.9 73 -4.4 24
23:35 1013 29.91 843 24.89 -0.1 31.9 73 -4.3 24.2
23:40 1013 29.91 843 24.89 -0.1 31.9 74 -4.2 24.5
23:45 1013 29.91 843 24.89 -0.1 31.8 74 -4.1 24.6
23:50 1013 29.91 843 24.89 -0.1 31.8 73 -4.3 24.2
23:55 1013 29.91 843 24.89 -0.1 31.9 73 -4.4 24.1
24:00 1013 29.91 843 24.89 0.1 32.2 70 -4.7 23.5